createdAt,value
2019-04-23T06:12:04.502Z,53.67
2019-04-23T06:17:17.797Z,53.58
2019-04-23T06:22:33.033Z,54.28
2019-04-23T06:27:31.011Z,53.91
2019-04-23T06:32:31.409Z,53.40
2019-04-23T06:38:03.278Z,53.08
2019-04-23T06:43:05.072Z,53.67
2019-04-23T06:48:15.477Z,52.80
2019-04-23T06:53:09.100Z,53.05
2019-04-23T06:58:32.363Z,53.39
2019-04-23T07:03:35.960Z,53.10
2019-04-23T07:13:54.753Z,52.47
2019-04-23T07:19:12.738Z,51.60
2019-04-23T07:29:18.895Z,47.84
2019-04-23T07:34:10.134Z,48.12
2019-04-23T07:39:23.347Z,47.03
2019-04-23T07:49:49.324Z,47.88
2019-04-23T07:54:58.802Z,47.08
2019-04-23T07:59:56.426Z,44.88
2019-04-23T08:05:11.240Z,44.72
2019-04-23T08:10:08.480Z,42.34
2019-04-23T08:15:17.287Z,41.34
2019-04-23T08:20:23.052Z,40.41
2019-04-23T08:25:26.572Z,41.44
2019-04-23T08:30:36.163Z,40.26
2019-04-23T08:35:45.321Z,39.28
2019-04-23T08:40:57.521Z,38.43
2019-04-23T08:45:52.501Z,36.69
2019-04-23T08:51:32.404Z,38.60
2019-04-23T08:56:08.697Z,37.07
2019-04-23T09:06:21.747Z,36.66
2019-04-23T09:16:35.820Z,35.78
2019-04-23T09:21:40.179Z,34.32
2019-04-23T09:26:56.216Z,34.30
2019-04-23T09:32:16.076Z,33.88
2019-04-23T09:42:24.654Z,35.62
2019-04-23T09:47:54.642Z,34.96
2019-04-23T10:02:53.353Z,30.15
2019-04-23T10:07:51.923Z,29.00
2019-04-23T10:12:48.225Z,28.61
2019-04-23T10:17:54.219Z,28.43
2019-04-23T10:23:00.155Z,28.91
2019-04-23T10:28:10.520Z,28.73
2019-04-23T10:33:13.800Z,28.08
2019-04-23T10:38:20.388Z,29.39
2019-04-23T10:43:25.103Z,28.71
2019-04-23T10:49:12.851Z,29.17
2019-04-23T10:54:23.943Z,29.78
2019-04-23T10:59:30.047Z,29.38
2019-04-23T11:09:52.961Z,28.76
2019-04-23T11:14:53.666Z,28.59
2019-04-23T11:20:07.093Z,27.47
2019-04-23T11:30:19.134Z,27.55
2019-04-23T11:40:22.928Z,27.06
2019-04-23T11:45:32.312Z,27.41
2019-04-23T11:51:17.496Z,29.27
2019-04-23T12:01:03.315Z,29.28
2019-04-23T12:06:23.625Z,28.43
2019-04-23T12:11:50.313Z,30.84
2019-04-23T12:16:31.753Z,28.05
2019-04-23T12:21:37.583Z,28.66
2019-04-23T12:26:43.543Z,27.72
2019-04-23T12:32:15.576Z,28.22
2019-04-23T12:37:26.926Z,28.55
2019-04-23T12:42:45.439Z,27.95
2019-04-23T12:52:41.250Z,28.31
2019-04-23T12:57:40.960Z,28.17
2019-04-23T13:07:54.070Z,27.86
2019-04-23T13:13:11.176Z,26.77
2019-04-23T13:18:06.772Z,26.85
2019-04-23T13:28:21.801Z,26.95
2019-04-23T13:33:33.668Z,28.19
2019-04-23T13:43:40.157Z,27.91
2019-04-23T13:48:35.944Z,28.00
2019-04-23T13:53:51.333Z,28.40
2019-04-23T14:04:11.813Z,28.02
2019-04-23T14:09:20.076Z,27.93
2019-04-23T14:14:38.512Z,28.28
2019-04-23T14:19:23.284Z,27.91
2019-04-23T14:24:47.123Z,28.04
2019-04-23T14:29:50.301Z,28.28
2019-04-23T14:34:56.866Z,29.33
2019-04-23T14:39:58.851Z,29.35
2019-04-23T14:45:13.933Z,29.70
2019-04-23T15:00:28.620Z,30.69
2019-04-23T15:05:33.833Z,29.94
2019-04-23T15:10:41.121Z,29.73
2019-04-23T15:15:48.668Z,31.16
2019-04-23T15:21:08.540Z,31.77
2019-04-23T15:26:49.495Z,32.17
2019-04-23T15:31:11.007Z,31.83
2019-04-23T15:41:23.705Z,31.88
2019-04-23T15:51:40.900Z,31.96
2019-04-23T16:01:37.763Z,32.89
2019-04-23T16:06:26.339Z,34.17
2019-04-23T16:12:03.151Z,34.29
2019-04-23T16:17:11.998Z,34.73
2019-04-23T16:27:11.099Z,35.38
2019-04-23T16:32:33.114Z,35.15
2019-04-23T16:37:27.118Z,35.60
2019-04-23T16:42:38.116Z,35.80
2019-04-23T16:48:09.246Z,36.95
2019-04-23T16:52:51.916Z,37.68
2019-04-23T16:58:08.331Z,37.27
2019-04-23T17:03:11.284Z,37.47
2019-04-23T17:08:30.642Z,37.59
2019-04-23T17:13:13.747Z,39.08
2019-04-23T17:23:32.856Z,38.49
2019-04-23T17:28:27.989Z,38.53
2019-04-23T17:39:03.974Z,38.43
2019-04-23T17:44:18.654Z,38.58
2019-04-23T17:49:10.730Z,39.26
2019-04-23T17:59:44.065Z,39.31
2019-04-23T18:04:33.033Z,40.26
2019-04-23T18:09:40.460Z,40.64
2019-04-23T18:14:39.469Z,40.91
2019-04-23T18:19:56.396Z,41.08
2019-04-23T18:30:15.849Z,41.62
2019-04-23T18:40:21.629Z,42.78
2019-04-23T18:45:39.099Z,43.54
2019-04-23T18:50:48.849Z,44.40
2019-04-23T18:56:02.407Z,45.95
2019-04-23T19:01:10.689Z,47.27
2019-04-23T19:06:14.985Z,48.00
2019-04-23T19:11:13.991Z,48.47
2019-04-23T19:16:25.326Z,48.73
2019-04-23T19:21:56.046Z,49.18
2019-04-23T19:36:59.661Z,49.84
2019-04-23T19:47:09.453Z,50.26
2019-04-23T19:52:18.720Z,50.69
2019-04-23T20:02:45.238Z,51.22
2019-04-23T20:07:43.146Z,51.64
2019-04-23T20:12:40.394Z,51.52
2019-04-23T20:17:43.332Z,51.91
2019-04-23T20:22:52.246Z,52.46
2019-04-23T20:28:14.788Z,52.46
2019-04-23T20:38:33.404Z,52.50
2019-04-23T20:43:46.630Z,53.16
2019-04-23T20:48:48.907Z,52.65
2019-04-23T20:54:08.737Z,52.36
2019-04-23T21:14:31.929Z,51.57
2019-04-23T21:19:32.677Z,51.63
2019-04-23T21:24:27.389Z,51.51
2019-04-23T21:29:40.241Z,51.24
2019-04-23T21:34:45.179Z,51.07
2019-04-23T21:44:53.934Z,50.61
2019-04-23T21:50:21.395Z,49.70
2019-04-23T21:55:04.065Z,49.03
2019-04-23T22:00:07.846Z,48.18
2019-04-23T22:05:25.393Z,47.01
2019-04-23T22:10:25.680Z,47.40
2019-04-23T22:15:34.482Z,45.28
2019-04-23T22:20:47.672Z,45.27
2019-04-23T22:25:56.875Z,45.22
2019-04-23T22:30:54.728Z,44.33
2019-04-23T22:36:06.237Z,43.64
2019-04-23T22:41:01.789Z,43.46
2019-04-23T22:46:20.780Z,43.08
2019-04-23T22:51:21.093Z,42.83
2019-04-23T22:56:45.126Z,42.36
2019-04-23T23:01:43.145Z,42.21
2019-04-23T23:06:50.657Z,42.45
2019-04-23T23:11:49.082Z,42.11
2019-04-23T23:16:50.426Z,42.25
2019-04-23T23:22:02.015Z,42.32
2019-04-23T23:26:57.474Z,42.28
2019-04-23T23:32:07.455Z,42.82
2019-04-23T23:37:12.083Z,42.75
2019-04-23T23:42:23.590Z,42.95
2019-04-23T23:47:19.673Z,43.08
2019-04-23T23:52:41.045Z,43.39
2019-04-23T23:57:41.838Z,43.85
